Time;durP1;ratioP1;P1;durP2;ratioP2;P2;SDS_P1;SDS_P2;PMS_P1;PMS_P2;Temp;Humidity;BMP_temperature;BMP_pressure;BME280_temperature;BME280_humidity;BME280_pressure;Samples;Min_cycle;Max_cycle;Signal;HPM_P1;HPM_P2
2022/12/26 00:01:26;;;;;;;25.80;10.53;;;;;;;7.67;72.89;101561.09;1925406;74;21050;-53
2022/12/26 00:03:56;;;;;;;22.05;9.10;;;;;;;7.68;72.96;101560.19;1925488;74;21095;-52
2022/12/26 00:06:27;;;;;;;21.52;8.58;;;;;;;7.70;73.01;101563.66;1925380;74;21489;-54
2022/12/26 00:08:57;;;;;;;26.90;9.45;;;;;;;7.69;72.96;101563.25;1924905;74;21544;-50
2022/12/26 00:11:27;;;;;;;26.95;9.45;;;;;;;7.68;72.95;101568.05;1892214;76;21140;-53
2022/12/26 00:14:02;;;;;;;20.90;9.95;;;;;;;7.69;72.95;101568.91;1892371;76;21050;-52
2022/12/26 00:16:32;;;;;;;24.95;10.15;;;;;;;7.69;72.92;101575.05;1892272;75;21042;-53
2022/12/26 00:19:02;;;;;;;21.75;10.30;;;;;;;7.71;72.85;101569.79;1908495;74;21022;-52
2022/12/26 00:21:31;;;;;;;22.62;10.20;;;;;;;7.69;72.83;101572.42;1925525;74;21470;-50
2022/12/26 00:24:00;;;;;;;23.55;8.93;;;;;;;7.68;72.83;101573.75;1925366;74;21035;-53
2022/12/26 00:26:32;;;;;;;23.40;8.90;;;;;;;7.66;72.83;101573.77;1925362;74;21058;-55
2022/12/26 00:29:00;;;;;;;23.18;9.55;;;;;;;7.62;72.85;101572.08;1924663;74;21066;-53
2022/12/26 00:31:32;;;;;;;23.95;9.58;;;;;;;7.59;72.91;101576.05;1925463;74;21026;-55
2022/12/26 00:34:01;;;;;;;22.25;9.85;;;;;;;7.56;72.95;101566.05;1925396;74;21164;-55
2022/12/26 00:36:33;;;;;;;24.67;9.70;;;;;;;7.52;72.94;101565.21;1925396;74;21469;-51
2022/12/26 00:39:03;;;;;;;27.70;9.85;;;;;;;7.48;72.92;101562.22;1925335;73;21105;-56
2022/12/26 00:41:32;;;;;;;28.38;9.53;;;;;;;7.45;72.95;101568.38;1917771;75;21033;-57
2022/12/26 00:44:02;;;;;;;23.35;9.30;;;;;;;7.43;73.02;101573.20;1917725;75;21510;-57
2022/12/26 00:46:30;;;;;;;24.75;8.70;;;;;;;7.41;73.05;101568.42;1917666;75;21477;-57
2022/12/26 00:48:59;;;;;;;21.68;9.68;;;;;;;7.40;73.11;101569.33;1917687;75;21481;-57
2022/12/26 00:51:28;;;;;;;23.00;9.85;;;;;;;7.38;73.11;101564.09;1918082;74;21125;-56
2022/12/26 00:53:57;;;;;;;25.20;9.65;;;;;;;7.34;73.13;101561.95;1917700;75;21043;-56
2022/12/26 00:56:25;;;;;;;19.75;9.23;;;;;;;7.30;73.20;101562.00;1917703;75;21140;-56
2022/12/26 00:58:54;;;;;;;21.20;8.53;;;;;;;7.26;73.31;101561.17;1947502;73;21125;-57
2022/12/26 01:01:24;;;;;;;18.60;6.97;;;;;;;7.25;73.43;101557.25;1959385;73;21517;-57
2022/12/26 01:03:53;;;;;;;26.25;9.55;;;;;;;7.23;73.53;101566.47;1935433;73;21058;-57
2022/12/26 01:06:21;;;;;;;27.27;10.18;;;;;;;7.25;73.63;101561.18;1925509;74;21050;-56
2022/12/26 01:08:50;;;;;;;19.25;8.15;;;;;;;7.28;73.69;101563.77;1924698;74;21046;-57
2022/12/26 01:11:40;;;;;;;21.40;8.68;;;;;;;7.30;73.86;101566.81;1925250;74;21073;-57
2022/12/26 01:13:49;;;;;;;23.18;8.18;;;;;;;7.35;73.81;101570.67;1910141;75;21083;-56
2022/12/26 01:16:19;;;;;;;19.75;9.88;;;;;;;7.37;73.80;101568.91;1998300;72;21051;-57
2022/12/26 01:18:47;;;;;;;23.07;8.43;;;;;;;7.40;73.81;101571.49;1989821;72;21468;-56
2022/12/26 01:21:17;;;;;;;19.37;8.50;;;;;;;7.44;73.76;101569.70;1964417;72;21073;-56
2022/12/26 01:23:45;;;;;;;24.67;8.73;;;;;;;7.48;73.70;101572.70;1996949;70;21152;-59
2022/12/26 01:26:14;;;;;;;21.68;10.38;;;;;;;7.52;73.68;101577.01;1992027;72;21053;-58
2022/12/26 01:28:42;;;;;;;26.27;10.48;;;;;;;7.55;73.65;101574.36;1996469;72;21101;-58
2022/12/26 01:31:11;;;;;;;29.60;9.40;;;;;;;7.57;73.67;101569.95;1980648;71;21633;-56
2022/12/26 01:33:40;;;;;;;25.17;9.38;;;;;;;7.59;73.71;101571.25;1972917;72;21006;-55
2022/12/26 01:36:09;;;;;;;24.35;10.23;;;;;;;7.57;73.77;101575.20;1983016;72;20989;-57
2022/12/26 01:38:37;;;;;;;23.98;9.48;;;;;;;7.57;73.81;101573.03;1987587;72;21175;-56
2022/12/26 01:41:16;;;;;;;23.02;8.93;;;;;;;7.57;73.90;101576.52;1994759;72;21018;-54
2022/12/26 01:43:51;;;;;;;29.37;10.85;;;;;;;7.56;73.87;101573.45;1996066;71;21127;-56
2022/12/26 01:46:25;;;;;;;24.87;9.65;;;;;;;7.56;73.92;101577.38;1998160;72;21026;-56
2022/12/26 01:48:56;;;;;;;24.02;9.20;;;;;;;7.56;74.01;101581.77;1998153;72;21539;-56
2022/12/26 01:51:27;;;;;;;24.52;10.30;;;;;;;7.57;74.04;101575.20;1985902;71;21026;-56
2022/12/26 01:53:59;;;;;;;24.65;9.83;;;;;;;7.57;74.07;101573.89;1962998;72;21072;-58
2022/12/26 01:56:30;;;;;;;22.75;9.40;;;;;;;7.56;74.01;101569.97;1995897;72;21006;-58
2022/12/26 01:59:04;;;;;;;25.17;8.58;;;;;;;7.53;73.82;101569.13;1998160;71;21011;-58
2022/12/26 02:01:36;;;;;;;21.68;9.15;;;;;;;7.52;73.74;101574.39;1987509;72;21053;-57
2022/12/26 02:06:55;;;;;;;19.27;8.73;;;;;;;7.50;73.82;101577.47;1968967;72;21469;-57
2022/12/26 02:09:24;;;;;;;21.82;8.90;;;;;;;7.49;73.91;101571.83;1975193;70;21450;-57
2022/12/26 02:12:04;;;;;;;25.02;9.05;;;;;;;7.50;73.93;101582.72;2035279;70;21599;-58
2022/12/26 02:14:33;;;;;;;22.25;8.83;;;;;;;7.50;74.01;101584.02;2027885;70;21016;-58
2022/12/26 02:17:02;;;;;;;25.82;9.15;;;;;;;7.49;74.08;101582.31;2028121;71;21084;-58
2022/12/26 02:19:49;;;;;;;25.27;10.05;;;;;;;7.50;74.14;101577.47;2027982;71;21455;-58
2022/12/26 02:22:29;;;;;;;22.02;8.73;;;;;;;7.52;74.08;101579.63;1993806;71;21223;-58
2022/12/26 02:25:23;;;;;;;27.37;8.65;;;;;;;7.53;73.97;101574.38;1955650;72;21016;-56
2022/12/26 02:28:24;;;;;;;19.42;8.35;;;;;;;7.55;73.91;101570.42;1956399;73;21086;-57
2022/12/26 02:31:07;;;;;;;18.20;8.10;;;;;;;7.56;73.90;101577.84;1955400;72;21575;-57
2022/12/26 02:33:54;;;;;;;23.38;9.70;;;;;;;7.56;73.89;101581.31;1956245;73;21164;-57
2022/12/26 02:36:31;;;;;;;23.75;8.33;;;;;;;7.55;73.87;101582.22;1962747;72;21497;-57
2022/12/26 02:39:12;;;;;;;21.10;9.05;;;;;;;7.57;73.91;101587.45;1972920;72;21169;-57
2022/12/26 02:41:46;;;;;;;19.62;7.95;;;;;;;7.59;73.89;101588.29;1973512;72;21104;-58
2022/12/26 02:47:37;;;;;;;22.75;8.85;;;;;;;7.61;74.03;101589.98;1975897;70;21491;-58
2022/12/26 03:13:25;;;;;;;19.85;8.28;;;;;;;7.73;74.14;101600.32;1974853;72;21038;-60
2022/12/26 03:18:46;;;;;;;24.75;8.13;;;;;;;7.68;74.45;101606.06;1971015;72;21527;-58
2022/12/26 03:21:17;;;;;;;21.20;7.95;;;;;;;7.68;74.42;101612.62;1971794;72;21943;-56
2022/12/26 03:23:48;;;;;;;21.57;8.33;;;;;;;7.68;74.53;101609.14;1968517;72;21074;-58
2022/12/26 03:26:40;;;;;;;18.02;7.67;;;;;;;7.66;74.82;101620.95;1978139;72;21136;-59
2022/12/26 03:32:03;;;;;;;16.40;6.53;;;;;;;7.64;75.02;101617.48;1972968;72;21075;-59
2022/12/26 03:34:34;;;;;;;23.52;9.75;;;;;;;7.68;74.90;101623.11;1967205;72;21231;-58
2022/12/26 03:37:11;;;;;;;20.32;8.55;;;;;;;7.67;75.13;101624.01;1985873;72;21085;-57
2022/12/26 04:20:58;;;;;;;21.35;6.78;;;;;;;7.28;78.06;101666.80;1988306;71;21113;-54
2022/12/26 04:44:05;;;;;;;18.35;6.92;;;;;;;7.19;78.66;101679.99;1990770;71;21003;-56
2022/12/26 04:46:35;;;;;;;20.60;8.60;;;;;;;7.18;78.69;101679.59;1990935;72;20995;-56
2022/12/26 04:51:54;;;;;;;31.97;10.70;;;;;;;7.21;78.62;101678.25;1960320;72;21007;-56
2022/12/26 04:54:23;;;;;;;24.63;9.05;;;;;;;7.24;78.58;101683.44;1956785;72;21080;-57
2022/12/26 04:56:53;;;;;;;26.37;10.23;;;;;;;7.26;78.54;101680.36;1984501;72;21039;-56
2022/12/26 04:59:22;;;;;;;24.23;10.35;;;;;;;7.27;78.47;101680.80;1991199;72;21446;-56
2022/12/26 05:10:21;;;;;;;25.17;9.28;;;;;;;7.29;78.63;101689.95;1970425;72;21102;-56
2022/12/26 05:12:51;;;;;;;22.58;8.13;;;;;;;7.29;78.82;101694.75;1968418;72;20999;-57
2022/12/26 05:15:20;;;;;;;22.42;9.70;;;;;;;7.30;78.83;101693.88;1981507;72;21301;-57
2022/12/26 05:29:03;;;;;;;24.90;10.30;;;;;;;7.32;78.76;101703.00;1984497;71;21145;-57
2022/12/26 05:31:31;;;;;;;22.50;9.60;;;;;;;7.32;78.80;101703.00;1963743;72;21011;-57
2022/12/26 05:34:16;;;;;;;22.27;9.43;;;;;;;7.34;78.99;101713.92;1994885;72;21000;-55
2022/12/26 05:36:42;;;;;;;27.20;10.50;;;;;;;7.33;79.19;101712.62;1993768;71;21019;-54
2022/12/26 05:39:11;;;;;;;24.75;9.75;;;;;;;7.35;79.27;101719.56;1989601;71;21203;-54
2022/12/26 05:41:40;;;;;;;29.05;10.35;;;;;;;7.38;79.28;101725.66;1959933;72;21027;-55
2022/12/26 05:44:09;;;;;;;27.42;10.65;;;;;;;7.39;79.14;101726.95;1960024;72;21035;-55
2022/12/26 05:46:41;;;;;;;32.50;11.33;;;;;;;7.41;79.22;101730.88;1959788;72;21563;-55
2022/12/26 05:49:11;;;;;;;32.35;12.35;;;;;;;7.42;79.33;101730.01;1959659;73;21027;-56
2022/12/26 05:51:39;;;;;;;29.45;12.07;;;;;;;7.44;79.41;101734.78;1990581;72;21454;-57
2022/12/26 05:54:08;;;;;;;30.12;11.73;;;;;;;7.45;79.33;101734.78;1991694;72;21081;-58
2022/12/26 05:56:37;;;;;;;36.42;12.58;;;;;;;7.49;79.28;101740.41;1959855;72;20991;-58
2022/12/26 05:59:06;;;;;;;23.70;10.68;;;;;;;7.51;79.23;101748.26;1959713;72;21108;-57
2022/12/26 06:01:35;;;;;;;27.52;10.93;;;;;;;7.52;79.17;101742.11;1980343;72;21557;-57
2022/12/26 06:04:04;;;;;;;32.65;12.10;;;;;;;7.55;79.19;101748.64;1964529;72;21102;-58
2022/12/26 06:06:33;;;;;;;32.42;13.20;;;;;;;7.56;79.32;101742.50;1959813;72;21023;-58
2022/12/26 06:09:01;;;;;;;28.67;12.07;;;;;;;7.61;79.33;101744.64;1959893;72;21031;-54
2022/12/26 06:11:30;;;;;;;42.20;18.82;;;;;;;7.64;79.31;101747.23;1961995;72;21112;-54
2022/12/26 06:14:00;;;;;;;65.62;30.88;;;;;;;7.68;79.27;101754.17;1959870;72;21011;-57
2022/12/26 06:16:30;;;;;;;58.00;26.10;;;;;;;7.71;79.32;101750.22;1934370;72;21131;-57
2022/12/26 06:18:59;;;;;;;70.97;30.80;;;;;;;7.76;79.33;101758.47;1978887;72;21040;-57
2022/12/26 06:21:27;;;;;;;68.95;31.68;;;;;;;7.78;79.42;101761.94;1976524;72;21064;-58
2022/12/26 06:23:56;;;;;;;66.70;30.15;;;;;;;7.81;79.39;101764.54;1959769;72;21014;-58
2022/12/26 06:26:25;;;;;;;53.52;26.50;;;;;;;7.82;79.37;101764.95;1978621;72;21024;-58
2022/12/26 06:28:53;;;;;;;46.83;22.60;;;;;;;7.84;79.36;101756.61;1970962;72;21163;-55
2022/12/26 06:31:23;;;;;;;51.18;20.88;;;;;;;7.84;79.36;101755.30;1945029;72;21060;-55
2022/12/26 06:34:04;;;;;;;51.20;21.77;;;;;;;7.86;79.33;101770.61;1971381;72;21583;-57
2022/12/26 06:36:30;;;;;;;38.90;17.20;;;;;;;7.85;79.30;101763.61;1978177;72;21444;-58
2022/12/26 06:39:00;;;;;;;31.15;13.43;;;;;;;7.86;79.28;101764.91;1978634;72;21049;-55
2022/12/26 06:41:28;;;;;;;34.95;13.80;;;;;;;7.86;79.30;101767.98;1963841;72;21509;-55
2022/12/26 06:43:57;;;;;;;32.25;12.58;;;;;;;7.87;79.34;101769.70;1949360;72;21017;-55
2022/12/26 06:46:26;;;;;;;28.57;11.75;;;;;;;7.87;79.39;101774.95;1944359;72;21110;-55
2022/12/26 06:48:55;;;;;;;25.65;10.30;;;;;;;7.89;79.43;101773.17;1965436;72;21560;-56
2022/12/26 06:51:27;;;;;;;23.35;10.23;;;;;;;7.90;79.51;101774.92;1975173;72;21034;-56
2022/12/26 06:53:56;;;;;;;25.43;10.80;;;;;;;7.92;79.55;101770.53;1951490;72;21036;-56
2022/12/26 06:56:26;;;;;;;28.87;10.95;;;;;;;7.95;79.53;101774.44;1945851;72;20997;-56
2022/12/26 06:58:57;;;;;;;24.30;10.30;;;;;;;7.95;79.51;101771.81;1978921;72;21440;-56
2022/12/26 07:01:28;;;;;;;22.52;10.68;;;;;;;7.96;79.49;101777.47;1974380;71;20986;-57
2022/12/26 07:03:57;;;;;;;22.15;9.65;;;;;;;7.98;79.51;101783.56;1976306;72;21546;-57
2022/12/26 07:06:33;;;;;;;25.55;10.28;;;;;;;8.00;79.51;101784.41;1978592;72;21504;-56
2022/12/26 07:09:08;;;;;;;29.92;10.65;;;;;;;7.98;79.60;101795.36;1978713;72;21001;-56
2022/12/26 07:11:39;;;;;;;27.27;9.83;;;;;;;7.98;79.69;101794.50;1977806;72;21013;-57
2022/12/26 07:14:08;;;;;;;28.17;10.60;;;;;;;7.96;79.76;101794.52;1978239;72;21068;-57
2022/12/26 07:16:39;;;;;;;27.40;9.85;;;;;;;7.96;79.79;101793.20;1979872;71;21103;-56
2022/12/26 07:19:09;;;;;;;24.80;8.95;;;;;;;7.98;79.79;101788.80;1994266;72;21101;-56
2022/12/26 07:21:38;;;;;;;23.65;10.50;;;;;;;7.99;79.73;101793.17;1978473;72;21505;-57
2022/12/26 07:24:07;;;;;;;21.25;8.78;;;;;;;8.02;79.72;101795.78;1958635;72;21021;-56
2022/12/26 07:26:36;;;;;;;17.67;8.75;;;;;;;8.03;79.65;101789.63;1977867;72;21011;-56
2022/12/26 07:29:05;;;;;;;22.27;9.08;;;;;;;8.07;79.63;101799.64;1991177;72;20967;-56
2022/12/26 07:31:33;;;;;;;26.20;9.15;;;;;;;8.12;79.57;101802.63;1991189;72;21019;-56
2022/12/26 07:34:02;;;;;;;26.12;9.93;;;;;;;8.15;79.62;101799.55;1988599;72;21028;-56
2022/12/26 07:36:30;;;;;;;19.50;7.67;;;;;;;8.18;79.69;101794.27;1991174;72;21023;-56
2022/12/26 07:38:59;;;;;;;28.62;9.08;;;;;;;8.21;79.77;101793.80;1991184;72;21568;-56
2022/12/26 07:44:16;;;;;;;25.00;9.60;;;;;;;8.23;79.97;101796.41;2026174;71;21105;-57
2022/12/26 07:46:50;;;;;;;19.27;7.40;;;;;;;8.26;79.91;101796.34;2004809;71;21031;-57
2022/12/26 07:49:15;;;;;;;17.65;6.47;;;;;;;8.29;79.85;101796.31;1954732;72;21097;-59
2022/12/26 07:51:44;;;;;;;19.60;7.70;;;;;;;8.32;79.89;101792.35;1955994;72;21015;-58
2022/12/26 07:54:14;;;;;;;17.00;7.83;;;;;;;8.35;79.96;101788.80;1956089;73;21100;-59
2022/12/26 07:56:43;;;;;;;20.05;8.80;;;;;;;8.41;79.97;101788.30;1957223;72;21097;-58
2022/12/26 07:59:14;;;;;;;21.15;9.38;;;;;;;8.54;79.93;101793.39;1956047;73;21023;-59
2022/12/26 08:01:43;;;;;;;20.40;8.15;;;;;;;8.65;79.81;101784.91;1956068;73;21019;-59
2022/12/26 08:04:13;;;;;;;18.73;7.72;;;;;;;8.77;79.64;101788.69;1956019;73;21529;-57
2022/12/26 08:07:02;;;;;;;20.45;7.85;;;;;;;8.86;79.55;101787.69;1956021;73;20991;-58
2022/12/26 08:09:31;;;;;;;23.87;8.70;;;;;;;8.93;79.46;101789.34;1918991;75;21034;-58
2022/12/26 08:12:00;;;;;;;18.07;7.45;;;;;;;9.01;79.41;101787.89;1919053;75;21410;-58
2022/12/26 08:14:29;;;;;;;21.40;9.15;;;;;;;9.09;79.30;101787.31;1921275;74;21123;-59
2022/12/26 08:16:57;;;;;;;18.95;8.18;;;;;;;9.16;79.27;101790.72;1925520;74;21088;-59
2022/12/26 08:19:26;;;;;;;19.98;8.20;;;;;;;9.18;79.23;101778.42;1925390;74;21006;-59
2022/12/26 08:21:54;;;;;;;22.67;8.10;;;;;;;9.21;79.23;101779.23;1925457;74;21155;-58
2022/12/26 08:24:23;;;;;;;23.32;8.53;;;;;;;9.26;79.19;101783.98;1925465;73;21107;-59
2022/12/26 08:26:52;;;;;;;18.25;7.95;;;;;;;9.31;79.18;101786.97;1925381;74;21026;-59
2022/12/26 08:29:20;;;;;;;21.73;8.85;;;;;;;9.36;79.23;101785.13;1925415;73;21149;-59
2022/12/26 08:31:49;;;;;;;15.50;7.50;;;;;;;9.40;79.19;101785.50;1925380;74;21111;-59
2022/12/26 08:34:17;;;;;;;20.77;9.05;;;;;;;9.42;79.16;101786.33;1925401;74;21058;-58
2022/12/26 08:36:48;;;;;;;18.02;7.42;;;;;;;9.45;79.04;101783.66;1925338;74;21096;-59
2022/12/26 08:39:16;;;;;;;24.37;9.38;;;;;;;9.47;78.92;101785.81;1925353;74;21097;-60
2022/12/26 08:41:45;;;;;;;19.37;8.80;;;;;;;9.46;78.87;101782.75;1925365;74;21544;-58
2022/12/26 08:44:16;;;;;;;17.52;7.03;;;;;;;9.48;78.85;101791.50;1925497;74;21104;-59
2022/12/26 08:46:45;;;;;;;18.48;8.48;;;;;;;9.49;78.78;101782.70;1925459;74;21123;-59
2022/12/26 08:49:13;;;;;;;16.73;7.37;;;;;;;9.49;78.74;101784.02;1925441;74;21531;-59
2022/12/26 08:51:42;;;;;;;14.58;6.25;;;;;;;9.51;78.64;101783.54;1925440;74;21046;-59
2022/12/26 08:54:11;;;;;;;19.85;8.08;;;;;;;9.51;78.56;101787.48;1925303;74;21034;-59
2022/12/26 08:56:39;;;;;;;22.00;9.03;;;;;;;9.52;78.51;101783.12;1925396;74;21042;-60
2022/12/26 08:59:08;;;;;;;21.37;7.67;;;;;;;9.52;78.50;101783.97;1925419;74;21081;-58
2022/12/26 09:01:37;;;;;;;19.02;7.47;;;;;;;9.53;78.53;101784.83;1925386;74;21002;-60
2022/12/26 09:04:06;;;;;;;17.52;7.65;;;;;;;9.54;78.52;101786.13;1925337;74;21055;-59
2022/12/26 09:06:37;;;;;;;13.65;5.70;;;;;;;9.56;78.47;101783.47;1925296;73;21078;-59
2022/12/26 09:09:10;;;;;;;19.30;7.12;;;;;;;9.55;78.43;101781.27;1923541;74;21035;-59
2022/12/26 09:11:39;;;;;;;15.93;6.45;;;;;;;9.58;78.39;101786.94;1922557;75;21151;-59
2022/12/26 09:14:08;;;;;;;11.50;5.67;;;;;;;9.60;78.28;101781.20;1922477;75;21481;-59
2022/12/26 09:16:44;;;;;;;17.65;7.03;;;;;;;9.61;78.17;101784.27;1922508;75;21122;-59
2022/12/26 09:19:18;;;;;;;15.25;6.33;;;;;;;9.63;78.12;101787.27;1922405;75;21128;-60
2022/12/26 09:21:48;;;;;;;15.78;6.83;;;;;;;9.69;78.04;101781.48;1922763;73;21022;-60
2022/12/26 09:24:18;;;;;;;16.02;6.33;;;;;;;9.74;77.97;101787.08;1922447;75;21469;-60
2022/12/26 09:26:47;;;;;;;14.33;6.45;;;;;;;9.78;77.89;101783.95;1922616;75;21034;-60
2022/12/26 09:29:15;;;;;;;11.33;5.53;;;;;;;9.79;77.85;101782.61;1922563;75;21120;-59
2022/12/26 09:31:44;;;;;;;12.60;6.00;;;;;;;9.79;77.81;101779.08;1922397;75;21065;-60
2022/12/26 09:34:13;;;;;;;16.50;7.22;;;;;;;9.78;77.76;101781.31;1922490;75;21038;-60
2022/12/26 09:36:41;;;;;;;15.10;5.80;;;;;;;9.77;77.71;101783.51;1922544;75;21119;-60
2022/12/26 09:39:12;;;;;;;13.40;6.05;;;;;;;9.77;77.66;101782.20;1922474;75;21045;-60
2022/12/26 09:42:00;;;;;;;18.42;6.40;;;;;;;9.74;77.65;101783.56;1922605;75;21030;-59
2022/12/26 09:44:47;;;;;;;14.35;6.42;;;;;;;9.73;77.62;101786.64;1922665;75;21465;-60
2022/12/26 09:47:36;;;;;;;15.88;7.42;;;;;;;9.73;77.59;101779.21;1922499;74;21513;-60
2022/12/26 09:50:26;;;;;;;15.88;6.67;;;;;;;9.74;77.53;101784.88;1917647;75;21556;-60
2022/12/26 09:53:00;;;;;;;16.73;7.17;;;;;;;9.76;77.46;101782.66;1898302;75;21539;-60
2022/12/26 09:55:43;;;;;;;15.38;6.97;;;;;;;9.78;77.38;101780.00;1922574;75;21119;-60
2022/12/26 09:58:15;;;;;;;17.52;7.15;;;;;;;9.80;77.31;101779.52;1922983;74;21042;-60
2022/12/26 10:00:47;;;;;;;13.70;6.40;;;;;;;9.81;77.23;101779.92;1918799;73;21010;-60
2022/12/26 10:03:16;;;;;;;15.78;5.97;;;;;;;9.79;77.18;101779.97;1922493;73;21050;-59
2022/12/26 10:06:02;;;;;;;15.70;6.55;;;;;;;9.81;77.13;101779.92;1922658;75;21142;-59
2022/12/26 10:08:55;;;;;;;17.48;7.95;;;;;;;9.81;77.11;101779.92;1920663;75;21050;-59
2022/12/26 10:11:43;;;;;;;9.68;3.92;;;;;;;9.82;77.04;101779.03;1901485;75;21434;-57
2022/12/26 10:14:45;;;;;;;12.10;4.78;;;;;;;9.84;76.94;101779.41;1899726;75;21120;-60
2022/12/26 10:17:26;;;;;;;12.00;5.80;;;;;;;9.88;76.82;101786.80;1900905;75;21490;-60
2022/12/26 10:19:57;;;;;;;12.95;5.37;;;;;;;9.90;76.67;101785.00;1901632;75;21094;-60
2022/12/26 10:22:47;;;;;;;11.80;4.78;;;;;;;9.91;76.60;101782.80;1901230;75;21039;-60
2022/12/26 10:25:22;;;;;;;12.35;4.60;;;;;;;9.91;76.60;101784.12;1901252;75;21058;-60
2022/12/26 10:27:52;;;;;;;10.28;5.80;;;;;;;9.95;76.60;101772.63;1901165;75;21489;-61
2022/12/26 10:30:26;;;;;;;8.30;4.10;;;;;;;10.01;76.55;101775.16;1901405;75;21458;-60
2022/12/26 10:33:03;;;;;;;8.90;4.62;;;;;;;10.09;76.55;101776.74;1900488;75;21027;-58
2022/12/26 10:35:41;;;;;;;6.65;2.87;;;;;;;10.14;76.42;101777.52;1900642;75;21023;-58
2022/12/26 10:38:28;;;;;;;7.70;4.00;;;;;;;10.15;76.29;101776.64;1901345;75;21031;-61
2022/12/26 10:41:00;;;;;;;13.58;4.80;;;;;;;10.15;76.36;101779.27;1901108;75;21604;-59
2022/12/26 10:43:33;;;;;;;10.15;4.87;;;;;;;10.15;76.44;101777.95;1901076;75;20995;-60
2022/12/26 10:46:18;;;;;;;;;;;;;;;10.20;76.54;101778.73;1904276;75;21105;-60
2022/12/26 10:48:47;;;;;;;;;;;;;;;10.26;76.57;101782.54;1902287;75;20134;-59
2022/12/26 10:51:16;;;;;;;7.97;3.58;;;;;;;10.29;76.51;101774.59;1901371;75;20207;-59
2022/12/26 10:53:50;;;;;;;9.55;4.47;;;;;;;10.30;76.57;101786.83;1901614;75;21056;-59
2022/12/26 10:56:20;;;;;;;9.20;4.10;;;;;;;10.29;76.63;101785.55;1901379;75;21039;-59
2022/12/26 10:58:58;;;;;;;11.40;3.70;;;;;;;10.27;76.72;101788.20;1901497;75;21051;-60
2022/12/26 11:01:35;;;;;;;9.35;4.72;;;;;;;10.27;76.74;101800.05;1900118;75;21105;-59
2022/12/26 11:04:07;;;;;;;11.30;4.75;;;;;;;10.27;76.69;101789.52;1901340;75;21031;-60
2022/12/26 11:06:41;;;;;;;10.25;4.90;;;;;;;10.28;76.61;101789.09;1899871;75;21098;-59
2022/12/26 11:09:29;;;;;;;12.82;5.08;;;;;;;10.28;76.63;101799.16;1902114;74;21101;-59
2022/12/26 11:11:58;;;;;;;10.38;4.15;;;;;;;10.29;76.64;101795.64;1900802;75;21055;-59
2022/12/26 11:14:30;;;;;;;9.85;4.20;;;;;;;10.30;76.59;101794.73;1907346;75;21482;-60
2022/12/26 11:17:01;;;;;;;10.70;4.60;;;;;;;10.34;76.57;101801.69;1907338;75;21101;-60
2022/12/26 11:19:36;;;;;;;9.25;4.05;;;;;;;10.36;76.54;101801.66;1907345;75;21023;-60
2022/12/26 11:22:27;;;;;;;8.40;3.52;;;;;;;10.38;76.47;101803.38;1907407;75;21058;-60
2022/12/26 11:25:14;;;;;;;11.73;3.87;;;;;;;10.39;76.39;101802.47;1907310;75;21050;-60
2022/12/26 11:27:55;;;;;;;6.80;3.50;;;;;;;10.41;76.30;101803.75;1907344;75;21466;-59
2022/12/26 11:30:27;;;;;;;8.60;3.37;;;;;;;10.42;76.18;101805.05;1907330;75;21025;-59
2022/12/26 11:33:14;;;;;;;6.58;2.90;;;;;;;10.43;76.13;101808.08;1907319;75;21191;-58
2022/12/26 11:36:03;;;;;;;6.03;2.75;;;;;;;10.45;76.10;101812.45;1906858;75;21027;-60
2022/12/26 11:41:31;;;;;;;10.80;4.05;;;;;;;10.45;75.92;101819.04;1894102;76;21551;-59
2022/12/26 11:44:05;;;;;;;6.85;2.98;;;;;;;10.45;75.90;101817.72;1894278;76;21010;-59
2022/12/26 11:46:40;;;;;;;9.28;3.83;;;;;;;10.46;75.89;101815.48;1893922;76;21054;-59
2022/12/26 11:49:23;;;;;;;13.13;4.67;;;;;;;10.50;75.83;101823.30;1893981;74;21058;-60
2022/12/26 11:51:53;;;;;;;12.55;5.97;;;;;;;10.53;75.77;101823.67;1894201;76;21022;-59
2022/12/26 11:54:25;;;;;;;12.07;5.58;;;;;;;10.56;75.69;101828.43;1894229;76;21062;-59
2022/12/26 11:57:14;;;;;;;13.98;5.58;;;;;;;10.59;75.62;101832.78;1894242;76;21050;-58
2022/12/26 11:59:43;;;;;;;16.07;6.90;;;;;;;10.61;75.58;101829.66;1893946;76;21034;-58
2022/12/26 12:02:27;;;;;;;11.30;4.00;;;;;;;10.64;75.57;101840.11;1862287;77;21022;-59
2022/12/26 12:04:58;;;;;;;10.65;4.40;;;;;;;10.62;75.60;101834.02;1893106;74;21532;-59
2022/12/26 12:07:36;;;;;;;6.72;3.00;;;;;;;10.61;75.54;101840.20;1894079;76;21034;-60
2022/12/26 12:10:30;;;;;;;13.03;3.30;;;;;;;10.60;75.55;101839.77;1893987;74;21038;-60
2022/12/26 12:13:01;;;;;;;12.58;3.00;;;;;;;10.55;75.51;101845.58;1892220;76;21489;-59
2022/12/26 12:15:33;;;;;;;15.95;3.67;;;;;;;10.47;75.55;101844.89;1893729;76;21461;-60
2022/12/26 12:18:16;;;;;;;5.97;2.40;;;;;;;10.39;75.60;101852.48;1893973;75;21050;-60
2022/12/26 12:21:12;;;;;;;7.67;3.08;;;;;;;10.38;75.56;101848.14;1871398;74;21191;-59
2022/12/26 12:24:00;;;;;;;5.85;2.27;;;;;;;10.35;75.53;101857.87;1894280;76;21058;-59
2022/12/26 12:26:43;;;;;;;6.00;2.55;;;;;;;10.29;75.61;101860.14;1894057;76;21497;-59
2022/12/26 12:29:20;;;;;;;5.62;3.08;;;;;;;10.26;75.59;101863.28;1894185;74;21042;-60
2022/12/26 12:31:54;;;;;;;6.55;3.40;;;;;;;10.23;75.60;101864.19;1893641;75;21497;-60
2022/12/26 12:34:44;;;;;;;6.95;3.37;;;;;;;10.21;75.57;101871.25;1891597;76;21046;-60
2022/12/26 12:37:19;;;;;;;8.28;2.98;;;;;;;10.18;75.61;101872.19;1893672;76;21120;-60
2022/12/26 12:39:51;;;;;;;6.62;2.77;;;;;;;10.18;75.70;101875.25;1891846;74;21078;-60
2022/12/26 12:42:28;;;;;;;7.50;3.50;;;;;;;10.17;75.72;101876.16;1846900;78;21120;-59
2022/12/26 12:45:05;;;;;;;6.33;2.98;;;;;;;10.14;75.84;101880.16;1887845;76;21544;-59
2022/12/26 12:47:46;;;;;;;10.98;3.35;;;;;;;10.15;75.91;101888.48;1844283;78;21109;-60
2022/12/26 12:50:17;;;;;;;10.03;3.52;;;;;;;10.16;75.89;101891.52;1887462;76;21066;-59
2022/12/26 12:52:49;;;;;;;18.00;5.58;;;;;;;10.13;76.02;101893.77;1864154;76;21050;-60
2022/12/26 12:55:23;;;;;;;11.55;5.05;;;;;;;10.14;76.13;101898.58;1845663;78;21148;-60
2022/12/26 12:57:55;;;;;;;13.10;4.67;;;;;;;10.13;76.21;101903.45;1887783;76;21611;-61
2022/12/26 13:00:26;;;;;;;14.98;4.97;;;;;;;10.15;76.26;101905.59;1887376;76;21128;-60
2022/12/26 13:03:22;;;;;;;8.05;3.30;;;;;;;10.17;76.16;101905.12;1887908;75;21063;-60
2022/12/26 13:06:03;;;;;;;9.90;3.25;;;;;;;10.18;76.10;101913.41;1823323;78;21555;-60
2022/12/26 13:08:37;;;;;;;8.83;3.67;;;;;;;10.16;76.07;101915.21;1887725;76;21100;-60
2022/12/26 13:11:12;;;;;;;9.53;3.75;;;;;;;10.13;76.10;101916.61;1887581;75;21135;-60
2022/12/26 13:13:49;;;;;;;8.08;2.92;;;;;;;10.13;76.09;101917.92;1846686;78;21588;-59
2022/12/26 13:16:21;;;;;;;6.42;2.85;;;;;;;10.11;76.10;101921.03;1886377;76;21474;-59
2022/12/26 13:18:55;;;;;;;9.78;3.33;;;;;;;10.10;76.13;101925.86;1887679;75;21042;-59
2022/12/26 13:21:25;;;;;;;4.45;2.22;;;;;;;10.06;76.18;101926.36;1846622;77;21052;-59
2022/12/26 13:26:45;;;;;;;4.80;2.75;;;;;;;9.96;76.40;101932.24;1887955;76;21576;-59
2022/12/26 13:29:19;;;;;;;6.62;2.60;;;;;;;9.94;76.45;101934.04;1845568;78;21100;-60
2022/12/26 13:31:48;;;;;;;16.57;3.45;;;;;;;9.92;76.48;101925.27;1888099;76;21104;-60
2022/12/26 13:34:19;;;;;;;15.88;3.45;;;;;;;9.91;76.48;101934.53;1887970;76;21167;-59
2022/12/26 13:36:54;;;;;;;4.70;2.10;;;;;;;9.88;76.56;101934.12;1888040;76;21050;-59
2022/12/26 13:39:29;;;;;;;4.47;2.02;;;;;;;9.84;76.60;101929.81;1887922;76;21179;-59
2022/12/26 13:44:58;;;;;;;12.63;2.70;;;;;;;9.78;76.41;101935.19;1884225;75;21125;-59
2022/12/26 13:47:39;;;;;;;7.22;2.15;;;;;;;9.78;76.17;101946.56;1906234;75;21040;-58
2022/12/26 13:50:45;;;;;;;5.90;1.70;;;;;;;9.76;76.12;101942.23;1910647;75;21540;-58
2022/12/26 13:53:19;;;;;;;6.78;2.30;;;;;;;9.73;76.08;101944.91;1910901;75;21027;-59
2022/12/26 13:55:48;;;;;;;4.70;1.77;;;;;;;9.70;75.98;101943.63;1893636;75;21172;-58
2022/12/26 13:58:39;;;;;;;3.70;2.00;;;;;;;9.69;75.86;101945.86;1910813;75;21071;-59
2022/12/26 14:01:26;;;;;;;9.15;3.80;;;;;;;9.66;75.85;101945.02;1910744;75;21553;-59
2022/12/26 14:04:12;;;;;;;8.20;4.15;;;;;;;9.65;75.79;101945.90;1910742;75;21034;-59